Flight Track Log - Related Links

Times and Time Zones

All times are in EDT time to prevent confusion due to time zone crossing. See the SWA1787 flight status page for this flight to view local times or setup timezone preferences in your user account.

Time Position Orientation Groundspeed Altitude Reporting Facility
EDT Latitude Longitude Course Direction KTS MPH feet Rate Location/Type
Sat 07:38:54 PM 28.0333 -82.5333 360° North 198 228 3,200  Level Tampa TRACON
Sat 07:39:54 PM 28.1000 -82.5333 360° North 223 257 7,500 4,150 Climbing Tampa TRACON
Sat 07:40:54 PM 28.1000 -82.5833 270° West 239 275 11,500 1,692 Climbing Tampa TRACON
Sat 07:42:30 PM 27.9633 -82.5803 179° South 334 384 11,900 923 Climbing Miami Center
Sat 07:43:30 PM 27.8592 -82.5797 180° South 365 420 13,900 2,600 Climbing Miami Center
Sat 07:44:30 PM 27.7489 -82.5694 175° South 382 440 17,100 3,250 Climbing Miami Center
Sat 07:45:30 PM 27.6406 -82.5150 156° South 406 467 20,400 2,950 Climbing Miami Center
Sat 07:46:30 PM 27.5300 -82.4578 155° Southeast 417 480 23,000 2,300 Climbing Miami Center
Sat 07:47:30 PM 27.4058 -82.3842 152° Southeast 448 516 25,000 1,000 Climbing Miami Center
Sat 07:48:30 PM 27.2914 -82.3156 152° Southeast 461 531 25,000  Level Miami Center
Sat 07:49:30 PM 27.1894 -82.2547 152° Southeast 461 531 25,000  Level Miami Center
Sat 07:50:30 PM 27.0750 -82.1889 153° Southeast 461 531 25,000  Level Miami Center
Sat 07:51:30 PM 26.9503 -82.1178 153° Southeast 461 531 25,000 -300 Level Miami Center
Sat 07:52:30 PM 26.8706 -82.0094 130° Southeast 456 525 24,400 -800 Descending Miami Center
Sat 07:53:30 PM 26.7911 -81.8967 128° Southeast 450 518 23,400 -1,000 Descending Miami Center
Sat 07:54:30 PM 26.7111 -81.7908 130° Southeast 445 512 22,400 -1,000 Descending Miami Center
Sat 07:55:30 PM 26.6333 -81.6856 130° Southeast 445 512 21,400 -950 Descending Miami Center
Sat 07:56:30 PM 26.5575 -81.5803 129° Southeast 439 505 20,500 -850 Descending Miami Center
Sat 07:57:30 PM 26.4975 -81.5014 130° Southeast 433 498 19,700 -1,000 Descending Miami Center
Sat 07:58:30 PM 26.4153 -81.3892 129° Southeast 427 491 18,500 -2,300 Descending Miami Center
Sat 07:59:30 PM 26.3372 -81.2794 128° Southeast 418 481 15,100 -3,200 Descending Miami Center
Sat 08:00:30 PM 26.2647 -81.1889 132° Southeast 400 460 12,100 -2,500 Descending Miami Center
Sat 08:01:30 PM 26.1939 -81.1100 135° Southeast 376 433 10,100 -1,418 Descending Miami Center
Sat 08:02:20 PM 26.1478 -81.0503 131° Southeast 287 330 9,500 -1,100 Descending Miami Center
Sat 08:03:30 PM 26.1061 -80.9681 119° Southeast 299 344 7,900 -1,292 Descending Miami Center
Sat 08:04:30 PM 26.0958 -80.8844 98° East 274 315 6,700 -950 Descending Miami Center
Sat 08:05:30 PM 26.0922 -80.7964 93° East 274 315 6,000 -350 Descending Miami Center
Sat 08:06:30 PM 26.0944 -80.7108 88° East 279 321 6,000  Level Miami Center
Sat 08:07:30 PM 26.1028 -80.6256 84° East 272 313 6,000  Level Miami Center
Sat 08:08:30 PM 26.1114 -80.5378 84° East 272 313 6,000  Level Miami Center
Sat 08:09:30 PM 26.1219 -80.4503 82° East 272 313 6,000  Level Miami Center
Sat 08:10:27 PM 26.1261 -80.3647 87° East 281 323 6,000  Level Miami Center
Sat 08:11:30 PM 26.1383 -80.2864 80° East 272 313 6,000  Level Miami Center
Sat 08:12:35 PM 26.1425 -80.1964 87° East 242 278 6,000 -48 Level Miami Center
Sat 08:13:36 PM 26.1506 -80.1225 83° East 241 277 5,900 -595 Descending Miami Center
Sat 08:14:36 PM 26.1522 -80.0461 89° East 240 276 4,800 -992 Descending Miami Center
Sat 08:15:37 PM 26.1581 -79.9700 85° East 236 272 3,900 -689 Descending Miami Center
Sat 08:16:38 PM 26.1403 -79.9139 109° East 220 253 3,400 -689 Descending Miami Center
Sat 08:17:39 PM 26.0839 -79.9125 179° South 201 231 2,500 -600 Descending Miami Center
Sat 08:18:58 PM 26.0719 -79.9864 260° West 194 223 2,000 -298 Descending Miami Center
Sat 08:19:40 PM 26.0753 -80.0281 275° West 179 206 1,900 -524 Descending Miami Center
Sat 08:20:41 PM 26.0722 -80.0764 266° West 151 174 1,100 -703 Descending Miami Center
Sat 08:21:48 PM 26.0753 -80.1228 274° West 130 150 400 -627 Descending Miami Center

Login

Don't have an account? Register now (free) for customized features, flight alerts, and more!